sensor_id;sensor_type;location;lat;lon;timestamp;pressure;altitude;pressure_sealevel;temperature;humidity
80184;BME280;69682;52.138;5.440;2023-07-13T09:53:47;101660.53;;;25.49;47.71
80184;BME280;69682;52.138;5.440;2023-07-13T09:56:24;101677.03;;;25.41;48.00
80184;BME280;69682;52.138;5.440;2023-07-13T09:58:51;101690.09;;;25.45;48.23
80184;BME280;69682;52.138;5.440;2023-07-13T10:01:34;101697.06;;;25.48;48.09
80184;BME280;69682;52.138;5.440;2023-07-13T10:04:11;101686.59;;;25.51;47.71
80184;BME280;69682;52.138;5.440;2023-07-13T10:06:39;101686.00;;;25.56;47.90
80184;BME280;69682;52.138;5.440;2023-07-13T10:09:13;101686.84;;;25.56;47.69
80184;BME280;69682;52.138;5.440;2023-07-13T10:11:41;101684.75;;;25.58;47.79
80184;BME280;69682;52.138;5.440;2023-07-13T10:14:17;101680.63;;;25.63;47.93
80184;BME280;69682;52.138;5.440;2023-07-13T10:16:47;101679.63;;;25.70;48.72
80184;BME280;69682;52.138;5.440;2023-07-13T10:19:21;101681.50;;;25.70;47.94
80184;BME280;69682;52.138;5.440;2023-07-13T10:21:58;101692.25;;;25.71;47.60
80184;BME280;69682;52.138;5.440;2023-07-13T10:40:59;101677.47;;;20.68;64.00
80184;BME280;69682;52.138;5.440;2023-07-13T10:43:39;101682.41;;;20.20;63.38
80184;BME280;69682;52.138;5.440;2023-07-13T10:46:13;101678.91;;;20.02;64.69
80184;BME280;69682;52.138;5.440;2023-07-13T10:48:43;101677.66;;;19.70;67.33
80184;BME280;69682;52.138;5.440;2023-07-13T10:51:14;101682.69;;;19.47;66.94
80184;BME280;69682;52.138;5.440;2023-07-13T10:53:42;101686.75;;;19.34;68.60
80184;BME280;69682;52.138;5.440;2023-07-13T10:56:29;101687.69;;;19.60;67.55
80184;BME280;69682;52.138;5.440;2023-07-13T10:59:23;101691.69;;;19.92;67.39
80184;BME280;69682;52.138;5.440;2023-07-13T11:01:58;101689.09;;;20.08;63.43
80184;BME280;69682;52.138;5.440;2023-07-13T11:04:29;101693.22;;;20.12;63.84
80184;BME280;69682;52.138;5.440;2023-07-13T11:07:17;101691.22;;;20.23;63.82
80184;BME280;69682;52.138;5.440;2023-07-13T11:09:50;101703.84;;;20.40;63.23
80184;BME280;69682;52.138;5.440;2023-07-13T11:22:51;101689.97;;;21.03;59.90
80184;BME280;69682;52.138;5.440;2023-07-13T11:30:46;101700.59;;;20.97;59.12
80184;BME280;69682;52.138;5.440;2023-07-13T11:33:16;101688.50;;;20.75;60.50
80184;BME280;69682;52.138;5.440;2023-07-13T11:36:02;101698.91;;;20.53;59.42
80184;BME280;69682;52.138;5.440;2023-07-13T11:38:37;101695.00;;;20.30;60.52
80184;BME280;69682;52.138;5.440;2023-07-13T11:41:21;101697.91;;;20.10;60.44
80184;BME280;69682;52.138;5.440;2023-07-13T11:43:50;101713.69;;;19.61;65.16
80184;BME280;69682;52.138;5.440;2023-07-13T11:48:48;101730.41;;;19.39;68.53
80184;BME280;69682;52.138;5.440;2023-07-13T11:51:31;101724.72;;;19.32;67.46
80184;BME280;69682;52.138;5.440;2023-07-13T11:54:02;101724.66;;;19.24;67.77
80184;BME280;69682;52.138;5.440;2023-07-13T11:56:31;101721.38;;;19.20;67.35
80184;BME280;69682;52.138;5.440;2023-07-13T11:59:04;101725.81;;;19.21;68.21
80184;BME280;69682;52.138;5.440;2023-07-13T12:01:32;101718.75;;;19.11;68.06
80184;BME280;69682;52.138;5.440;2023-07-13T12:04:02;101725.84;;;19.12;68.95
80184;BME280;69682;52.138;5.440;2023-07-13T12:06:31;101726.31;;;19.07;68.35
80184;BME280;69682;52.138;5.440;2023-07-13T12:09:00;101724.47;;;19.08;69.07
80184;BME280;69682;52.138;5.440;2023-07-13T12:11:30;101720.22;;;19.05;69.75
80184;BME280;69682;52.138;5.440;2023-07-13T12:14:01;101725.38;;;18.98;71.76
80184;BME280;69682;52.138;5.440;2023-07-13T12:16:32;101723.38;;;19.00;70.66
80184;BME280;69682;52.138;5.440;2023-07-13T12:19:00;101725.06;;;19.01;71.50
80184;BME280;69682;52.138;5.440;2023-07-13T12:21:33;101723.06;;;19.03;72.11
80184;BME280;69682;52.138;5.440;2023-07-13T12:24:00;101727.03;;;19.09;71.45
80184;BME280;69682;52.138;5.440;2023-07-13T12:26:29;101726.31;;;19.07;71.65
80184;BME280;69682;52.138;5.440;2023-07-13T12:29:00;101726.91;;;19.01;71.20
80184;BME280;69682;52.138;5.440;2023-07-13T12:31:40;101722.91;;;19.05;71.97
80184;BME280;69682;52.138;5.440;2023-07-13T12:34:15;101726.56;;;19.14;72.20
80184;BME280;69682;52.138;5.440;2023-07-13T12:36:46;101728.13;;;19.34;71.88
80184;BME280;69682;52.138;5.440;2023-07-13T12:39:37;101717.66;;;19.49;70.07
80184;BME280;69682;52.138;5.440;2023-07-13T12:42:33;101719.00;;;19.81;70.40
80184;BME280;69682;52.138;5.440;2023-07-13T12:45:17;101712.81;;;20.14;68.09
80184;BME280;69682;52.138;5.440;2023-07-13T12:47:52;101721.59;;;20.34;68.47
80184;BME280;69682;52.138;5.440;2023-07-13T12:50:22;101718.03;;;20.34;66.46
80184;BME280;69682;52.138;5.440;2023-07-13T12:53:01;101713.31;;;20.10;63.47
80184;BME280;69682;52.138;5.440;2023-07-13T12:55:47;101718.69;;;19.84;64.13
80184;BME280;69682;52.138;5.440;2023-07-13T12:58:26;101726.72;;;19.76;64.02
80184;BME280;69682;52.138;5.440;2023-07-13T13:00:55;101716.13;;;20.00;63.34
80184;BME280;69682;52.138;5.440;2023-07-13T13:03:32;101727.94;;;20.25;63.48
80184;BME280;69682;52.138;5.440;2023-07-13T13:08:33;101711.97;;;20.40;62.54
80184;BME280;69682;52.138;5.440;2023-07-13T13:11:01;101720.53;;;20.27;63.02
80184;BME280;69682;52.138;5.440;2023-07-13T13:13:28;101722.72;;;20.24;63.13
80184;BME280;69682;52.138;5.440;2023-07-13T13:15:55;101722.44;;;20.35;63.41
80184;BME280;69682;52.138;5.440;2023-07-13T13:18:23;101716.94;;;20.45;61.73
80184;BME280;69682;52.138;5.440;2023-07-13T13:20:51;101725.19;;;20.43;61.46
80184;BME280;69682;52.138;5.440;2023-07-13T13:23:20;101724.81;;;20.38;63.37
80184;BME280;69682;52.138;5.440;2023-07-13T13:25:49;101721.63;;;20.42;62.89
80184;BME280;69682;52.138;5.440;2023-07-13T13:28:19;101723.31;;;20.43;63.03
80184;BME280;69682;52.138;5.440;2023-07-13T13:30:47;101722.81;;;20.40;60.91
80184;BME280;69682;52.138;5.440;2023-07-13T13:33:17;101731.41;;;20.35;59.52
80184;BME280;69682;52.138;5.440;2023-07-13T13:35:45;101730.81;;;20.50;59.06
80184;BME280;69682;52.138;5.440;2023-07-13T13:38:17;101728.59;;;20.45;57.67
80184;BME280;69682;52.138;5.440;2023-07-13T13:40:44;101729.31;;;20.29;58.98
80184;BME280;69682;52.138;5.440;2023-07-13T13:43:23;101727.56;;;20.20;58.98
80184;BME280;69682;52.138;5.440;2023-07-13T13:45:56;101733.88;;;20.29;58.78
80184;BME280;69682;52.138;5.440;2023-07-13T13:48:33;101736.50;;;20.38;58.43
80184;BME280;69682;52.138;5.440;2023-07-13T13:51:01;101729.81;;;20.51;58.78
80184;BME280;69682;52.138;5.440;2023-07-13T13:53:28;101729.34;;;20.55;58.59
80184;BME280;69682;52.138;5.440;2023-07-13T13:55:55;101728.34;;;20.56;58.37
80184;BME280;69682;52.138;5.440;2023-07-13T13:58:21;101733.06;;;20.54;57.43
80184;BME280;69682;52.138;5.440;2023-07-13T14:00:48;101724.72;;;20.48;57.29
80184;BME280;69682;52.138;5.440;2023-07-13T14:03:17;101722.00;;;20.48;57.52
80184;BME280;69682;52.138;5.440;2023-07-13T14:05:45;101728.06;;;20.68;56.82
80184;BME280;69682;52.138;5.440;2023-07-13T14:08:20;101727.66;;;20.89;55.42
80184;BME280;69682;52.138;5.440;2023-07-13T14:10:49;101730.72;;;20.85;55.91
80184;BME280;69682;52.138;5.440;2023-07-13T14:13:28;101723.75;;;20.83;56.25
80184;BME280;69682;52.138;5.440;2023-07-13T14:15:57;101723.44;;;20.86;56.95
80184;BME280;69682;52.138;5.440;2023-07-13T14:18:25;101728.78;;;20.78;56.18
80184;BME280;69682;52.138;5.440;2023-07-13T14:20:51;101729.13;;;20.75;56.13
80184;BME280;69682;52.138;5.440;2023-07-13T14:23:21;101741.78;;;20.66;55.78
80184;BME280;69682;52.138;5.440;2023-07-13T14:25:48;101740.94;;;20.66;56.44
80184;BME280;69682;52.138;5.440;2023-07-13T14:28:26;101726.88;;;20.62;56.36
80184;BME280;69682;52.138;5.440;2023-07-13T14:30:53;101736.47;;;20.56;56.23
80184;BME280;69682;52.138;5.440;2023-07-13T14:33:21;101724.31;;;20.60;56.12
80184;BME280;69682;52.138;5.440;2023-07-13T14:35:49;101729.84;;;20.85;56.69
80184;BME280;69682;52.138;5.440;2023-07-13T14:38:22;101737.97;;;20.85;54.80
80184;BME280;69682;52.138;5.440;2023-07-13T14:40:49;101743.38;;;20.77;55.67
80184;BME280;69682;52.138;5.440;2023-07-13T14:43:16;101740.44;;;20.70;55.77
80184;BME280;69682;52.138;5.440;2023-07-13T14:45:47;101739.25;;;20.73;55.87
80184;BME280;69682;52.138;5.440;2023-07-13T14:48:18;101743.88;;;20.80;55.03
80184;BME280;69682;52.138;5.440;2023-07-13T14:50:45;101743.19;;;20.78;55.76
80184;BME280;69682;52.138;5.440;2023-07-13T14:53:13;101736.97;;;20.86;56.08
80184;BME280;69682;52.138;5.440;2023-07-13T14:55:40;101745.06;;;20.78;55.80
80184;BME280;69682;52.138;5.440;2023-07-13T14:58:21;101743.88;;;20.80;56.57
80184;BME280;69682;52.138;5.440;2023-07-13T15:00:48;101744.22;;;20.77;55.16
80184;BME280;69682;52.138;5.440;2023-07-13T15:03:22;101747.72;;;20.70;55.84
80184;BME280;69682;52.138;5.440;2023-07-13T15:05:50;101744.00;;;20.71;55.50
80184;BME280;69682;52.138;5.440;2023-07-13T15:08:17;101742.75;;;20.99;55.37
80184;BME280;69682;52.138;5.440;2023-07-13T15:10:44;101739.13;;;21.25;54.52
80184;BME280;69682;52.138;5.440;2023-07-13T15:13:17;101743.06;;;21.30;55.09
80184;BME280;69682;52.138;5.440;2023-07-13T15:15:46;101746.75;;;21.29;54.94
80184;BME280;69682;52.138;5.440;2023-07-13T15:18:15;101749.75;;;21.10;54.98
80184;BME280;69682;52.138;5.440;2023-07-13T15:20:57;101747.53;;;21.05;55.37
80184;BME280;69682;52.138;5.440;2023-07-13T15:23:26;101748.06;;;21.09;55.12
80184;BME280;69682;52.138;5.440;2023-07-13T15:25:53;101751.66;;;21.26;55.84
80184;BME280;69682;52.138;5.440;2023-07-13T15:28:22;101755.72;;;21.22;55.71
80184;BME280;69682;52.138;5.440;2023-07-13T15:30:50;101753.72;;;21.24;55.03
80184;BME280;69682;52.138;5.440;2023-07-13T15:33:23;101751.00;;;21.32;55.01
80184;BME280;69682;52.138;5.440;2023-07-13T15:35:59;101758.47;;;21.30;55.61
80184;BME280;69682;52.138;5.440;2023-07-13T15:38:30;101757.22;;;21.16;55.11
80184;BME280;69682;52.138;5.440;2023-07-13T15:40:58;101749.56;;;21.03;55.00
80184;BME280;69682;52.138;5.440;2023-07-13T15:43:26;101749.16;;;20.90;55.37
80184;BME280;69682;52.138;5.440;2023-07-13T15:45:52;101755.22;;;20.84;55.41
80184;BME280;69682;52.138;5.440;2023-07-13T15:48:22;101757.09;;;20.83;55.09
80184;BME280;69682;52.138;5.440;2023-07-13T15:50:54;101754.34;;;21.09;55.68
80184;BME280;69682;52.138;5.440;2023-07-13T15:53:25;101754.03;;;21.29;54.03
80184;BME280;69682;52.138;5.440;2023-07-13T15:55:52;101747.00;;;21.36;53.86
80184;BME280;69682;52.138;5.440;2023-07-13T15:58:19;101747.19;;;21.43;52.83
80184;BME280;69682;52.138;5.440;2023-07-13T16:00:47;101751.56;;;21.44;53.07
80184;BME280;69682;52.138;5.440;2023-07-13T16:03:21;101741.09;;;21.49;52.44
80184;BME280;69682;52.138;5.440;2023-07-13T16:05:49;101741.78;;;21.59;52.74
80184;BME280;69682;52.138;5.440;2023-07-13T16:08:25;101744.34;;;21.69;53.95
80184;BME280;69682;52.138;5.440;2023-07-13T16:10:53;101744.84;;;21.72;52.84
80184;BME280;69682;52.138;5.440;2023-07-13T16:13:21;101746.19;;;21.76;52.93
80184;BME280;69682;52.138;5.440;2023-07-13T16:15:47;101748.91;;;21.76;53.22
80184;BME280;69682;52.138;5.440;2023-07-13T16:18:15;101737.56;;;21.81;53.98
80184;BME280;69682;52.138;5.440;2023-07-13T16:20:44;101746.91;;;21.87;51.81
80184;BME280;69682;52.138;5.440;2023-07-13T16:23:12;101746.03;;;21.78;51.71
80184;BME280;69682;52.138;5.440;2023-07-13T16:25:40;101749.09;;;21.75;52.35
80184;BME280;69682;52.138;5.440;2023-07-13T16:28:09;101752.50;;;21.77;52.04
80184;BME280;69682;52.138;5.440;2023-07-13T16:30:36;101745.19;;;21.77;53.01
80184;BME280;69682;52.138;5.440;2023-07-13T16:33:04;101751.13;;;21.81;52.03
80184;BME280;69682;52.138;5.440;2023-07-13T16:35:36;101744.16;;;21.78;52.11
80184;BME280;69682;52.138;5.440;2023-07-13T16:38:13;101750.13;;;21.74;51.73
80184;BME280;69682;52.138;5.440;2023-07-13T16:40:40;101747.06;;;21.77;51.29
80184;BME280;69682;52.138;5.440;2023-07-13T16:43:13;101751.47;;;21.86;51.00
80184;BME280;69682;52.138;5.440;2023-07-13T16:45:40;101749.41;;;21.88;51.32
80184;BME280;69682;52.138;5.440;2023-07-13T16:48:15;101744.53;;;21.84;51.10
80184;BME280;69682;52.138;5.440;2023-07-13T16:50:43;101745.38;;;21.92;51.48
80184;BME280;69682;52.138;5.440;2023-07-13T16:53:24;101745.38;;;21.84;51.34
80184;BME280;69682;52.138;5.440;2023-07-13T16:55:52;101757.03;;;21.76;51.79
80184;BME280;69682;52.138;5.440;2023-07-13T16:58:24;101751.31;;;21.71;51.63
80184;BME280;69682;52.138;5.440;2023-07-13T17:00:52;101752.28;;;21.70;51.69
80184;BME280;69682;52.138;5.440;2023-07-13T17:03:19;101754.53;;;21.75;51.79
80184;BME280;69682;52.138;5.440;2023-07-13T17:05:46;101750.44;;;21.79;51.89
80184;BME280;69682;52.138;5.440;2023-07-13T17:08:23;101757.25;;;21.83;52.26
80184;BME280;69682;52.138;5.440;2023-07-13T17:10:54;101756.22;;;21.84;52.36
80184;BME280;69682;52.138;5.440;2023-07-13T17:13:21;101754.00;;;21.96;51.61
80184;BME280;69682;52.138;5.440;2023-07-13T17:15:53;101756.22;;;21.92;51.84
80184;BME280;69682;52.138;5.440;2023-07-13T17:18:26;101748.25;;;21.91;51.66
80184;BME280;69682;52.138;5.440;2023-07-13T17:20:54;101748.94;;;21.93;52.66
80184;BME280;69682;52.138;5.440;2023-07-13T17:23:22;101749.59;;;21.87;52.09
80184;BME280;69682;52.138;5.440;2023-07-13T17:25:50;101755.53;;;21.66;52.42
80184;BME280;69682;52.138;5.440;2023-07-13T17:28:20;101755.50;;;21.49;53.14
80184;BME280;69682;52.138;5.440;2023-07-13T17:30:49;101761.22;;;21.38;52.90
80184;BME280;69682;52.138;5.440;2023-07-13T17:33:35;101759.13;;;21.32;52.89
80184;BME280;69682;52.138;5.440;2023-07-13T17:36:11;101755.75;;;21.30;53.78
80184;BME280;69682;52.138;5.440;2023-07-13T17:38:41;101752.19;;;21.21;52.93
80184;BME280;69682;52.138;5.440;2023-07-13T17:41:11;101759.94;;;21.16;53.43
80184;BME280;69682;52.138;5.440;2023-07-13T17:43:41;101758.91;;;21.09;53.91
80184;BME280;69682;52.138;5.440;2023-07-13T17:46:37;101752.78;;;21.07;54.43
80184;BME280;69682;52.138;5.440;2023-07-13T17:49:05;101753.97;;;21.04;54.82
80184;BME280;69682;52.138;5.440;2023-07-13T17:51:32;101761.06;;;20.97;53.64
80184;BME280;69682;52.138;5.440;2023-07-13T17:53:59;101763.78;;;20.97;53.76
80184;BME280;69682;52.138;5.440;2023-07-13T17:56:25;101766.31;;;20.99;54.17
80184;BME280;69682;52.138;5.440;2023-07-13T17:58:53;101763.13;;;21.03;54.59
80184;BME280;69682;52.138;5.440;2023-07-13T18:01:21;101765.84;;;21.03;54.36
80184;BME280;69682;52.138;5.440;2023-07-13T18:03:52;101768.53;;;21.03;54.78
80184;BME280;69682;52.138;5.440;2023-07-13T18:06:31;101765.66;;;21.05;54.61
80184;BME280;69682;52.138;5.440;2023-07-13T18:09:18;101765.84;;;21.12;54.62
80184;BME280;69682;52.138;5.440;2023-07-13T18:11:45;101772.91;;;20.96;54.63
80184;BME280;69682;52.138;5.440;2023-07-13T18:14:12;101773.50;;;20.82;55.29
80184;BME280;69682;52.138;5.440;2023-07-13T18:16:40;101772.66;;;20.81;55.36
80184;BME280;69682;52.138;5.440;2023-07-13T18:21:53;101788.53;;;20.76;55.43
80184;BME280;69682;52.138;5.440;2023-07-13T18:24:20;101782.44;;;20.74;55.26
80184;BME280;69682;52.138;5.440;2023-07-13T18:26:59;101789.03;;;20.72;55.36
80184;BME280;69682;52.138;5.440;2023-07-13T18:29:26;101784.91;;;20.68;55.45
80184;BME280;69682;52.138;5.440;2023-07-13T18:31:56;101782.59;;;20.73;56.21
80184;BME280;69682;52.138;5.440;2023-07-13T18:34:26;101787.00;;;20.74;56.12
80184;BME280;69682;52.138;5.440;2023-07-13T18:36:54;101781.06;;;20.70;55.99
80184;BME280;69682;52.138;5.440;2023-07-13T18:39:22;101778.97;;;20.64;55.88
80184;BME280;69682;52.138;5.440;2023-07-13T18:41:58;101783.19;;;20.58;55.90
80184;BME280;69682;52.138;5.440;2023-07-13T18:44:29;101785.03;;;20.58;56.38
80184;BME280;69682;52.138;5.440;2023-07-13T18:46:56;101792.00;;;20.60;56.73
80184;BME280;69682;52.138;5.440;2023-07-13T18:49:22;101791.47;;;20.57;55.59
80184;BME280;69682;52.138;5.440;2023-07-13T18:51:49;101789.31;;;20.42;56.37
80184;BME280;69682;52.138;5.440;2023-07-13T18:54:17;101795.44;;;20.45;56.15
80184;BME280;69682;52.138;5.440;2023-07-13T18:56:43;101789.31;;;20.42;57.07
80184;BME280;69682;52.138;5.440;2023-07-13T18:59:10;101796.72;;;20.40;56.93
80184;BME280;69682;52.138;5.440;2023-07-13T19:01:37;101801.22;;;20.32;56.97
80184;BME280;69682;52.138;5.440;2023-07-13T19:04:27;101802.56;;;20.28;57.15
80184;BME280;69682;52.138;5.440;2023-07-13T19:06:54;101796.75;;;20.23;57.69
80184;BME280;69682;52.138;5.440;2023-07-13T19:09:21;101805.19;;;20.19;58.04
80184;BME280;69682;52.138;5.440;2023-07-13T19:11:47;101803.81;;;20.15;57.56
80184;BME280;69682;52.138;5.440;2023-07-13T19:14:21;101801.44;;;20.12;58.37
80184;BME280;69682;52.138;5.440;2023-07-13T19:16:49;101802.72;;;20.08;59.06
80184;BME280;69682;52.138;5.440;2023-07-13T19:19:18;101806.59;;;20.06;58.56
80184;BME280;69682;52.138;5.440;2023-07-13T19:21:47;101807.78;;;20.03;59.35
80184;BME280;69682;52.138;5.440;2023-07-13T19:24:21;101808.38;;;19.97;59.33
80184;BME280;69682;52.138;5.440;2023-07-13T19:26:49;101806.84;;;19.94;60.12
80184;BME280;69682;52.138;5.440;2023-07-13T19:29:22;101816.97;;;19.92;60.46
80184;BME280;69682;52.138;5.440;2023-07-13T19:31:50;101813.56;;;19.90;60.13
80184;BME280;69682;52.138;5.440;2023-07-13T19:34:23;101812.41;;;19.75;60.69
80184;BME280;69682;52.138;5.440;2023-07-13T19:36:59;101812.53;;;19.73;61.47
80184;BME280;69682;52.138;5.440;2023-07-13T19:39:35;101808.31;;;19.71;60.94
80184;BME280;69682;52.138;5.440;2023-07-13T19:42:25;101811.84;;;19.71;61.72
80184;BME280;69682;52.138;5.440;2023-07-13T19:44:54;101818.16;;;19.62;61.26
80184;BME280;69682;52.138;5.440;2023-07-13T19:47:22;101817.75;;;19.57;61.46
80184;BME280;69682;52.138;5.440;2023-07-13T19:49:50;101820.91;;;19.52;62.09
80184;BME280;69682;52.138;5.440;2023-07-13T19:52:20;101817.66;;;19.49;62.73
80184;BME280;69682;52.138;5.440;2023-07-13T19:54:51;101820.53;;;19.47;62.80
80184;BME280;69682;52.138;5.440;2023-07-13T19:57:22;101824.38;;;19.45;63.22
80184;BME280;69682;52.138;5.440;2023-07-13T19:59:52;101825.34;;;19.44;63.22
80184;BME280;69682;52.138;5.440;2023-07-13T20:02:22;101835.47;;;19.42;63.25
80184;BME280;69682;52.138;5.440;2023-07-13T20:04:49;101832.69;;;19.34;63.44
80184;BME280;69682;52.138;5.440;2023-07-13T20:07:17;101827.88;;;19.27;63.68
80184;BME280;69682;52.138;5.440;2023-07-13T20:09:49;101827.31;;;19.24;64.14
80184;BME280;69682;52.138;5.440;2023-07-13T20:12:18;101833.03;;;19.21;63.86
80184;BME280;69682;52.138;5.440;2023-07-13T20:14:47;101834.47;;;19.15;64.03
80184;BME280;69682;52.138;5.440;2023-07-13T20:19:52;101834.84;;;18.93;64.08
80184;BME280;69682;52.138;5.440;2023-07-13T20:22:21;101832.44;;;18.90;64.57
80184;BME280;69682;52.138;5.440;2023-07-13T20:24:56;101827.16;;;18.88;65.26
80184;BME280;69682;52.138;5.440;2023-07-13T20:27:23;101831.88;;;18.86;65.30
80184;BME280;69682;52.138;5.440;2023-07-13T20:29:50;101827.19;;;18.78;65.44
80184;BME280;69682;52.138;5.440;2023-07-13T20:32:16;101836.16;;;18.69;64.93
80184;BME280;69682;52.138;5.440;2023-07-13T20:34:45;101840.28;;;18.64;65.53
80184;BME280;69682;52.138;5.440;2023-07-13T20:37:29;101840.44;;;18.62;65.39
80184;BME280;69682;52.138;5.440;2023-07-13T20:39:59;101840.72;;;18.59;65.62
80184;BME280;69682;52.138;5.440;2023-07-13T20:42:25;101835.75;;;18.54;65.66
80184;BME280;69682;52.138;5.440;2023-07-13T20:44:52;101846.00;;;18.51;65.76
80184;BME280;69682;52.138;5.440;2023-07-13T20:47:21;101843.72;;;18.36;65.41
80184;BME280;69682;52.138;5.440;2023-07-13T20:49:50;101842.16;;;18.34;65.74
80184;BME280;69682;52.138;5.440;2023-07-13T20:52:19;101838.34;;;18.27;66.46
80184;BME280;69682;52.138;5.440;2023-07-13T20:54:46;101836.34;;;18.19;66.01
80184;BME280;69682;52.138;5.440;2023-07-13T20:57:14;101832.09;;;18.16;66.23
80184;BME280;69682;52.138;5.440;2023-07-13T20:59:42;101832.25;;;18.15;66.06
80184;BME280;69682;52.138;5.440;2023-07-13T21:04:48;101833.50;;;18.11;65.09
80184;BME280;69682;52.138;5.440;2023-07-13T21:07:19;101836.78;;;18.05;65.59
80184;BME280;69682;52.138;5.440;2023-07-13T21:09:46;101834.50;;;18.00;65.26
80184;BME280;69682;52.138;5.440;2023-07-13T21:12:13;101841.31;;;17.95;64.91
80184;BME280;69682;52.138;5.440;2023-07-13T21:14:40;101836.91;;;17.93;64.91
80184;BME280;69682;52.138;5.440;2023-07-13T21:17:13;101838.19;;;17.89;64.56
80184;BME280;69682;52.138;5.440;2023-07-13T21:19:40;101838.75;;;17.83;64.80
80184;BME280;69682;52.138;5.440;2023-07-13T21:22:14;101840.59;;;17.83;64.86
80184;BME280;69682;52.138;5.440;2023-07-13T21:24:41;101839.28;;;17.77;64.67
80184;BME280;69682;52.138;5.440;2023-07-13T21:27:08;101845.22;;;17.71;64.64
80184;BME280;69682;52.138;5.440;2023-07-13T21:29:36;101848.31;;;17.66;65.13
80184;BME280;69682;52.138;5.440;2023-07-13T21:32:05;101851.19;;;17.65;65.93
80184;BME280;69682;52.138;5.440;2023-07-13T21:34:32;101849.59;;;17.62;65.92
80184;BME280;69682;52.138;5.440;2023-07-13T21:36:59;101852.97;;;17.55;66.16
80184;BME280;69682;52.138;5.440;2023-07-13T21:39:26;101852.25;;;17.53;66.51
80184;BME280;69682;52.138;5.440;2023-07-13T21:41:53;101851.22;;;17.44;66.63
80184;BME280;69682;52.138;5.440;2023-07-13T21:46:58;101849.53;;;17.43;66.62
80184;BME280;69682;52.138;5.440;2023-07-13T21:49:25;101859.28;;;17.34;66.52
80184;BME280;69682;52.138;5.440;2023-07-13T21:51:52;101860.75;;;17.38;66.86
80184;BME280;69682;52.138;5.440;2023-07-13T21:54:21;101864.09;;;17.31;66.46
80184;BME280;69682;52.138;5.440;2023-07-13T21:56:48;101868.06;;;17.27;66.12
80184;BME280;69682;52.138;5.440;2023-07-13T21:59:18;101865.50;;;17.25;66.39
80184;BME280;69682;52.138;5.440;2023-07-13T22:01:45;101863.81;;;17.24;66.77
80184;BME280;69682;52.138;5.440;2023-07-13T22:04:14;101860.50;;;17.20;67.63
80184;BME280;69682;52.138;5.440;2023-07-13T22:06:43;101859.53;;;17.21;67.01
80184;BME280;69682;52.138;5.440;2023-07-13T22:09:14;101848.75;;;17.21;68.11
80184;BME280;69682;52.138;5.440;2023-07-13T22:11:41;101851.56;;;17.20;68.00
80184;BME280;69682;52.138;5.440;2023-07-13T22:14:08;101851.84;;;17.17;68.04
80184;BME280;69682;52.138;5.440;2023-07-13T22:16:35;101850.44;;;17.13;68.22
80184;BME280;69682;52.138;5.440;2023-07-13T22:19:13;101851.81;;;17.07;67.75
80184;BME280;69682;52.138;5.440;2023-07-13T22:21:40;101845.25;;;17.00;67.83
80184;BME280;69682;52.138;5.440;2023-07-13T22:24:18;101850.91;;;16.97;68.21
80184;BME280;69682;52.138;5.440;2023-07-13T22:26:47;101844.66;;;16.96;69.00
80184;BME280;69682;52.138;5.440;2023-07-13T22:29:16;101847.03;;;16.90;68.90
80184;BME280;69682;52.138;5.440;2023-07-13T22:31:43;101848.69;;;16.81;68.95
80184;BME280;69682;52.138;5.440;2023-07-13T22:34:16;101842.31;;;16.82;69.21
80184;BME280;69682;52.138;5.440;2023-07-13T22:36:44;101842.06;;;16.85;69.44
80184;BME280;69682;52.138;5.440;2023-07-13T22:39:13;101846.72;;;16.83;69.57
80184;BME280;69682;52.138;5.440;2023-07-13T22:41:40;101842.25;;;16.72;69.57
80184;BME280;69682;52.138;5.440;2023-07-13T22:44:17;101839.97;;;16.68;69.41
80184;BME280;69682;52.138;5.440;2023-07-13T22:46:44;101840.19;;;16.65;69.94
80184;BME280;69682;52.138;5.440;2023-07-13T22:51:46;101836.81;;;16.63;70.26
80184;BME280;69682;52.138;5.440;2023-07-13T22:54:13;101841.34;;;16.62;69.70
80184;BME280;69682;52.138;5.440;2023-07-13T22:56:40;101838.19;;;16.57;69.83
80184;BME280;69682;52.138;5.440;2023-07-13T22:59:07;101834.03;;;16.53;70.13
80184;BME280;69682;52.138;5.440;2023-07-13T23:01:37;101836.72;;;16.53;69.96
80184;BME280;69682;52.138;5.440;2023-07-13T23:04:15;101845.06;;;16.50;69.77
80184;BME280;69682;52.138;5.440;2023-07-13T23:06:43;101833.97;;;16.43;69.82
80184;BME280;69682;52.138;5.440;2023-07-13T23:09:14;101834.72;;;16.45;69.50
80184;BME280;69682;52.138;5.440;2023-07-13T23:11:41;101832.66;;;16.38;70.29
80184;BME280;69682;52.138;5.440;2023-07-13T23:14:08;101838.81;;;16.28;70.56
80184;BME280;69682;52.138;5.440;2023-07-13T23:16:35;101840.78;;;16.26;70.74
80184;BME280;69682;52.138;5.440;2023-07-13T23:19:02;101841.13;;;16.12;70.81
80184;BME280;69682;52.138;5.440;2023-07-13T23:21:30;101840.13;;;16.13;71.62
80184;BME280;69682;52.138;5.440;2023-07-13T23:23:57;101839.00;;;16.16;71.70
80184;BME280;69682;52.138;5.440;2023-07-13T23:26:25;101841.47;;;16.07;71.57
80184;BME280;69682;52.138;5.440;2023-07-13T23:28:53;101831.09;;;16.03;71.76
80184;BME280;69682;52.138;5.440;2023-07-13T23:31:31;101833.44;;;15.96;71.68
80184;BME280;69682;52.138;5.440;2023-07-13T23:34:02;101825.41;;;15.85;71.92
80184;BME280;69682;52.138;5.440;2023-07-13T23:36:31;101831.78;;;15.84;72.28
80184;BME280;69682;52.138;5.440;2023-07-13T23:38:57;101831.41;;;15.88;72.21
80184;BME280;69682;52.138;5.440;2023-07-13T23:41:24;101822.22;;;15.91;71.68
80184;BME280;69682;52.138;5.440;2023-07-13T23:43:52;101826.03;;;15.88;71.59
80184;BME280;69682;52.138;5.440;2023-07-13T23:46:30;101827.00;;;15.87;71.53
80184;BME280;69682;52.138;5.440;2023-07-13T23:49:01;101821.88;;;15.84;71.54
80184;BME280;69682;52.138;5.440;2023-07-13T23:51:29;101809.44;;;15.83;71.96